Details From DAOB - BOU CHEKIF
To DAUA - TOUAT CHEIKH SIDI MOHAMED BELKEBIR
Flight Number -
Tags generated
Created
Modified
Stats Distance 459 nm / 851 km
Max Altitude 34,000 ft / 10,363 m
Waypoints 5
Social Downloads 1
Likes 0
Share VATSIM

Download

Looking for another format? Having issues loading an existing format? Contact us
Advertisement - Login to hide

Notes

Basic altitude profile: - Ascent Rate: 2500ft/min - Ascent Speed: 250kts - Cruise Altitude: 35000ft - Cruise Speed: 420kts - Descent Rate: 1500ft/min - Descent Speed: 250kts Options: - Use NATs: no - Use PACOTS: no - Use low airways: yes - Use high airways: no

Route

DAOB BAY G26 TIO DAUA

ID Type Via Altitude Latitude Longitude Leg Dist Tot Dist Heading (true) Name
O DAOB APT - 0 ft / 0 m 35.34114˚ 1.46315˚ - 0 nm - BOU CHEKIF
BAY VOR - 34,000 ft / 10,363 m 33.70981˚ 1.07919˚ 99 nm 99 nm 191° / 191° EL BAYADH VOR-DME
GOLIB FIX G26 (AWY-LO) 24,500 ft / 7,468 m 33.00000˚ 0.83333˚ 44 nm 144 nm 196° / 196° -
TIO VOR G26 (AWY-LO) 18,500 ft / 5,639 m 29.22608˚ 0.25809˚ 228 nm 372 nm 188° / 187° TIMIMOUN VOR-DME
O DAUA APT - 0 ft / 0 m 27.83764˚ -0.18639˚ 86 nm 459 nm 196° / 196° TOUAT CHEIKH SIDI MOHAMED BELKEBIR

Altitude Profile

Advertisement - Login to hide

Weather


0- 5 10 15 20 25 30 35+ Temperature / ° C

Clouds and Precipitation
Forecast for 2018-05-26 18:00 UTC. Updated 42 minutes ago

Ground ~20,000 ft ~40,000 ft Winds

DAOB

Details ICAO DAOB (TID)
Name BOU CHEKIF
Region Algeria
Timezone Africa/Algiers (UTC+1.0)
Stats Elevation 3,245 ft / 989 m (AMSL)
Location 35.341136° 1.463147°
Runways 1
Magnetic Variation 0.682° E

METAR

DAOB 261800Z 00000KT CAVOK 21/14 Q1014

Decode

TAF

TAF DAOB 261700Z 2618/2718 20012KT 9999 FEW026 PROB30 TEMPO 2618/2622 20015G25KT 4000 DRSA PROB40 TEMPO 2710/2718 FEW026TCU BECMG 2714/2716 32010KT PROB40 2714/2718 32015G25KT 5000 -TSRA FEW023CB

Decode

Departure Runways

ID Width Length Bearing (true) Bearing (mag) Surface Threshold Offset Overrun Length
08 148 ft / 45 m 9,810 ft / 2,990 m 81.23° 80.55° Asphalt 0 ft / 0 m 198 ft / 60 m
26 148 ft / 45 m 9,810 ft / 2,990 m 261.25° 260.57° Asphalt 0 ft / 0 m 198 ft / 60 m

DAUA

Details ICAO DAUA (AZR)
Name TOUAT CHEIKH SIDI MOHAMED BELKEBIR
Region Algeria
Timezone Africa/Algiers (UTC+1.0)
Stats Elevation 919 ft / 280 m (AMSL)
Location 27.837639° -0.186389°
Runways 1
Magnetic Variation 0.045° W

METAR

DAUA 261800Z 34012KT 6000 NSC 36/// Q1011

Decode

TAF

TAF TAF DAUA 261700Z 2618/2718 02015KT 7000 SCT046 SCT100 PROB40 TEMPO 2618/2622 02015G25KT 5000 DRSA BECMG 2621/2624 08012KT BECMG 2709/2712 24014KT

Decode

Destination Runways

ID Width Length Bearing (true) Bearing (mag) Surface Threshold Offset Overrun Length
04 148 ft / 45 m 9,857 ft / 3,005 m 39.53° 39.58° Asphalt 0 ft / 0 m 0 ft / 0 m
22 148 ft / 45 m 9,857 ft / 3,005 m 219.54° 219.59° Asphalt 0 ft / 0 m 0 ft / 0 m

Popular Alternatives